sensor_id;sensor_type;location;lat;lon;timestamp;P1;durP1;ratioP1;P2;durP2;ratioP2
31537;SDS011;18147;51.952;6.146;2023-07-13T00:00:12;10.57;;;3.38;;
31537;SDS011;18147;51.952;6.146;2023-07-13T00:02:41;11.02;;;3.35;;
31537;SDS011;18147;51.952;6.146;2023-07-13T00:05:07;17.77;;;3.70;;
31537;SDS011;18147;51.952;6.146;2023-07-13T00:07:34;9.93;;;3.72;;
31537;SDS011;18147;51.952;6.146;2023-07-13T00:10:00;16.35;;;3.50;;
31537;SDS011;18147;51.952;6.146;2023-07-13T00:12:27;9.40;;;3.13;;
31537;SDS011;18147;51.952;6.146;2023-07-13T00:14:57;11.60;;;3.17;;
31537;SDS011;18147;51.952;6.146;2023-07-13T00:17:24;12.05;;;3.03;;
31537;SDS011;18147;51.952;6.146;2023-07-13T00:19:49;11.63;;;3.35;;
31537;SDS011;18147;51.952;6.146;2023-07-13T00:22:15;6.25;;;3.17;;
31537;SDS011;18147;51.952;6.146;2023-07-13T00:24:43;9.38;;;3.63;;
31537;SDS011;18147;51.952;6.146;2023-07-13T00:27:09;12.88;;;3.22;;
31537;SDS011;18147;51.952;6.146;2023-07-13T00:29:35;12.45;;;3.20;;
31537;SDS011;18147;51.952;6.146;2023-07-13T00:32:03;10.95;;;2.88;;
31537;SDS011;18147;51.952;6.146;2023-07-13T00:34:29;9.68;;;3.25;;
31537;SDS011;18147;51.952;6.146;2023-07-13T00:36:56;8.02;;;2.80;;
31537;SDS011;18147;51.952;6.146;2023-07-13T00:39:21;10.02;;;2.63;;
31537;SDS011;18147;51.952;6.146;2023-07-13T00:41:48;9.52;;;2.65;;
31537;SDS011;18147;51.952;6.146;2023-07-13T00:44:14;17.98;;;3.35;;
31537;SDS011;18147;51.952;6.146;2023-07-13T00:46:41;7.90;;;2.97;;
31537;SDS011;18147;51.952;6.146;2023-07-13T00:49:07;8.18;;;2.97;;
31537;SDS011;18147;51.952;6.146;2023-07-13T00:51:44;12.70;;;3.35;;
31537;SDS011;18147;51.952;6.146;2023-07-13T00:54:23;12.85;;;3.20;;
31537;SDS011;18147;51.952;6.146;2023-07-13T00:56:55;8.23;;;2.83;;
31537;SDS011;18147;51.952;6.146;2023-07-13T00:59:31;14.23;;;3.47;;
31537;SDS011;18147;51.952;6.146;2023-07-13T01:02:01;11.77;;;3.40;;
31537;SDS011;18147;51.952;6.146;2023-07-13T01:04:28;13.90;;;3.15;;
31537;SDS011;18147;51.952;6.146;2023-07-13T01:06:54;10.73;;;2.97;;
31537;SDS011;18147;51.952;6.146;2023-07-13T01:09:20;8.30;;;3.20;;
31537;SDS011;18147;51.952;6.146;2023-07-13T01:11:46;11.38;;;3.58;;
31537;SDS011;18147;51.952;6.146;2023-07-13T01:14:12;11.30;;;3.33;;
31537;SDS011;18147;51.952;6.146;2023-07-13T01:16:39;9.80;;;2.92;;
31537;SDS011;18147;51.952;6.146;2023-07-13T01:19:12;11.15;;;3.38;;
31537;SDS011;18147;51.952;6.146;2023-07-13T01:22:18;15.85;;;3.45;;
31537;SDS011;18147;51.952;6.146;2023-07-13T01:24:45;10.65;;;3.10;;
31537;SDS011;18147;51.952;6.146;2023-07-13T01:27:14;12.73;;;3.45;;
31537;SDS011;18147;51.952;6.146;2023-07-13T01:29:42;10.32;;;3.10;;
31537;SDS011;18147;51.952;6.146;2023-07-13T01:32:32;13.07;;;2.90;;
31537;SDS011;18147;51.952;6.146;2023-07-13T01:34:59;8.13;;;3.10;;
31537;SDS011;18147;51.952;6.146;2023-07-13T01:37:25;8.38;;;3.20;;
31537;SDS011;18147;51.952;6.146;2023-07-13T01:39:52;13.18;;;3.28;;
31537;SDS011;18147;51.952;6.146;2023-07-13T01:42:18;12.23;;;3.92;;
31537;SDS011;18147;51.952;6.146;2023-07-13T01:44:44;11.77;;;3.92;;
31537;SDS011;18147;51.952;6.146;2023-07-13T01:47:09;12.57;;;4.47;;
31537;SDS011;18147;51.952;6.146;2023-07-13T01:49:35;11.27;;;3.75;;
31537;SDS011;18147;51.952;6.146;2023-07-13T01:52:03;11.05;;;3.80;;
31537;SDS011;18147;51.952;6.146;2023-07-13T01:54:29;7.22;;;3.58;;
31537;SDS011;18147;51.952;6.146;2023-07-13T01:56:55;8.63;;;3.80;;
31537;SDS011;18147;51.952;6.146;2023-07-13T01:59:21;12.27;;;4.18;;
31537;SDS011;18147;51.952;6.146;2023-07-13T02:01:46;10.95;;;4.50;;
31537;SDS011;18147;51.952;6.146;2023-07-13T02:04:13;14.70;;;4.18;;
31537;SDS011;18147;51.952;6.146;2023-07-13T02:06:38;11.23;;;4.28;;
31537;SDS011;18147;51.952;6.146;2023-07-13T02:09:04;17.05;;;4.72;;
31537;SDS011;18147;51.952;6.146;2023-07-13T02:11:30;14.00;;;5.68;;
31537;SDS011;18147;51.952;6.146;2023-07-13T02:14:01;13.57;;;4.95;;
31537;SDS011;18147;51.952;6.146;2023-07-13T02:16:27;14.02;;;5.18;;
31537;SDS011;18147;51.952;6.146;2023-07-13T02:18:54;14.23;;;5.10;;
31537;SDS011;18147;51.952;6.146;2023-07-13T02:21:21;16.60;;;5.35;;
31537;SDS011;18147;51.952;6.146;2023-07-13T02:23:47;13.60;;;5.13;;
31537;SDS011;18147;51.952;6.146;2023-07-13T02:26:15;12.55;;;5.32;;
31537;SDS011;18147;51.952;6.146;2023-07-13T02:28:41;17.75;;;5.35;;
31537;SDS011;18147;51.952;6.146;2023-07-13T02:31:07;9.70;;;4.40;;
31537;SDS011;18147;51.952;6.146;2023-07-13T02:33:35;11.55;;;4.30;;
31537;SDS011;18147;51.952;6.146;2023-07-13T02:36:01;10.40;;;4.88;;
31537;SDS011;18147;51.952;6.146;2023-07-13T02:38:27;14.77;;;4.75;;
31537;SDS011;18147;51.952;6.146;2023-07-13T02:40:53;11.75;;;4.72;;
31537;SDS011;18147;51.952;6.146;2023-07-13T02:43:18;12.35;;;5.38;;
31537;SDS011;18147;51.952;6.146;2023-07-13T02:45:46;17.02;;;5.55;;
31537;SDS011;18147;51.952;6.146;2023-07-13T02:48:13;12.40;;;5.13;;
31537;SDS011;18147;51.952;6.146;2023-07-13T02:50:39;12.77;;;5.68;;
31537;SDS011;18147;51.952;6.146;2023-07-13T02:53:05;12.98;;;5.22;;
31537;SDS011;18147;51.952;6.146;2023-07-13T02:55:30;15.02;;;5.57;;
31537;SDS011;18147;51.952;6.146;2023-07-13T02:57:56;19.95;;;5.93;;
31537;SDS011;18147;51.952;6.146;2023-07-13T03:00:22;12.77;;;5.25;;
31537;SDS011;18147;51.952;6.146;2023-07-13T03:02:48;16.85;;;5.00;;
31537;SDS011;18147;51.952;6.146;2023-07-13T03:05:14;14.75;;;5.03;;
31537;SDS011;18147;51.952;6.146;2023-07-13T03:07:42;18.92;;;5.60;;
31537;SDS011;18147;51.952;6.146;2023-07-13T03:10:10;15.10;;;5.35;;
31537;SDS011;18147;51.952;6.146;2023-07-13T03:12:42;11.20;;;4.32;;
31537;SDS011;18147;51.952;6.146;2023-07-13T03:15:15;12.32;;;5.22;;
31537;SDS011;18147;51.952;6.146;2023-07-13T03:17:43;16.33;;;5.28;;
31537;SDS011;18147;51.952;6.146;2023-07-13T03:20:08;16.30;;;5.30;;
31537;SDS011;18147;51.952;6.146;2023-07-13T03:22:35;11.65;;;5.25;;
31537;SDS011;18147;51.952;6.146;2023-07-13T03:25:01;16.45;;;5.43;;
31537;SDS011;18147;51.952;6.146;2023-07-13T03:27:27;13.48;;;5.22;;
31537;SDS011;18147;51.952;6.146;2023-07-13T03:29:53;14.73;;;6.25;;
31537;SDS011;18147;51.952;6.146;2023-07-13T03:32:19;16.65;;;6.25;;
31537;SDS011;18147;51.952;6.146;2023-07-13T03:34:44;16.55;;;5.78;;
31537;SDS011;18147;51.952;6.146;2023-07-13T03:37:12;19.05;;;5.82;;
31537;SDS011;18147;51.952;6.146;2023-07-13T03:39:37;12.73;;;5.55;;
31537;SDS011;18147;51.952;6.146;2023-07-13T03:42:03;13.98;;;5.97;;
31537;SDS011;18147;51.952;6.146;2023-07-13T03:44:29;14.52;;;5.30;;
31537;SDS011;18147;51.952;6.146;2023-07-13T03:46:56;15.32;;;6.22;;
31537;SDS011;18147;51.952;6.146;2023-07-13T03:49:22;17.73;;;5.85;;
31537;SDS011;18147;51.952;6.146;2023-07-13T03:51:48;18.05;;;6.53;;
31537;SDS011;18147;51.952;6.146;2023-07-13T03:54:13;15.43;;;6.65;;
31537;SDS011;18147;51.952;6.146;2023-07-13T03:56:39;17.75;;;5.50;;
31537;SDS011;18147;51.952;6.146;2023-07-13T03:59:06;22.15;;;6.95;;
31537;SDS011;18147;51.952;6.146;2023-07-13T04:01:32;16.15;;;6.13;;
31537;SDS011;18147;51.952;6.146;2023-07-13T04:03:58;14.85;;;5.90;;
31537;SDS011;18147;51.952;6.146;2023-07-13T04:06:26;14.52;;;5.88;;
31537;SDS011;18147;51.952;6.146;2023-07-13T04:08:58;15.10;;;5.95;;
31537;SDS011;18147;51.952;6.146;2023-07-13T04:11:27;18.60;;;6.22;;
31537;SDS011;18147;51.952;6.146;2023-07-13T04:13:54;12.88;;;6.53;;
31537;SDS011;18147;51.952;6.146;2023-07-13T04:16:20;18.25;;;6.65;;
31537;SDS011;18147;51.952;6.146;2023-07-13T04:18:46;15.43;;;6.32;;
31537;SDS011;18147;51.952;6.146;2023-07-13T04:21:13;18.88;;;6.28;;
31537;SDS011;18147;51.952;6.146;2023-07-13T04:23:39;16.02;;;6.80;;
31537;SDS011;18147;51.952;6.146;2023-07-13T04:26:05;11.75;;;5.78;;
31537;SDS011;18147;51.952;6.146;2023-07-13T04:28:31;13.90;;;5.80;;
31537;SDS011;18147;51.952;6.146;2023-07-13T04:30:58;13.18;;;5.85;;
31537;SDS011;18147;51.952;6.146;2023-07-13T04:33:24;15.40;;;5.72;;
31537;SDS011;18147;51.952;6.146;2023-07-13T04:35:50;15.27;;;5.97;;
31537;SDS011;18147;51.952;6.146;2023-07-13T04:38:22;18.75;;;6.13;;
31537;SDS011;18147;51.952;6.146;2023-07-13T04:40:49;16.33;;;5.85;;
31537;SDS011;18147;51.952;6.146;2023-07-13T04:43:16;13.27;;;6.22;;
31537;SDS011;18147;51.952;6.146;2023-07-13T04:45:41;16.13;;;5.28;;
31537;SDS011;18147;51.952;6.146;2023-07-13T04:48:07;19.10;;;6.78;;
31537;SDS011;18147;51.952;6.146;2023-07-13T04:50:35;19.60;;;6.25;;
31537;SDS011;18147;51.952;6.146;2023-07-13T04:53:02;16.23;;;6.05;;
31537;SDS011;18147;51.952;6.146;2023-07-13T04:55:29;14.20;;;5.88;;
31537;SDS011;18147;51.952;6.146;2023-07-13T04:57:55;12.32;;;5.60;;
31537;SDS011;18147;51.952;6.146;2023-07-13T05:00:23;14.70;;;6.47;;
31537;SDS011;18147;51.952;6.146;2023-07-13T05:02:49;15.50;;;6.45;;
31537;SDS011;18147;51.952;6.146;2023-07-13T05:05:15;15.43;;;5.85;;
31537;SDS011;18147;51.952;6.146;2023-07-13T05:07:41;16.73;;;6.15;;
31537;SDS011;18147;51.952;6.146;2023-07-13T05:10:07;16.13;;;5.88;;
31537;SDS011;18147;51.952;6.146;2023-07-13T05:12:33;21.30;;;7.53;;
31537;SDS011;18147;51.952;6.146;2023-07-13T05:14:58;12.50;;;5.95;;
31537;SDS011;18147;51.952;6.146;2023-07-13T05:17:24;13.80;;;6.15;;
31537;SDS011;18147;51.952;6.146;2023-07-13T05:19:50;16.38;;;6.40;;
31537;SDS011;18147;51.952;6.146;2023-07-13T05:22:15;19.30;;;5.50;;
31537;SDS011;18147;51.952;6.146;2023-07-13T05:24:41;17.92;;;6.85;;
31537;SDS011;18147;51.952;6.146;2023-07-13T05:27:07;18.67;;;7.40;;
31537;SDS011;18147;51.952;6.146;2023-07-13T05:29:32;14.88;;;6.82;;
31537;SDS011;18147;51.952;6.146;2023-07-13T05:31:58;19.80;;;7.72;;
31537;SDS011;18147;51.952;6.146;2023-07-13T05:34:23;17.65;;;7.78;;
31537;SDS011;18147;51.952;6.146;2023-07-13T05:36:49;27.35;;;8.30;;
31537;SDS011;18147;51.952;6.146;2023-07-13T05:39:15;19.88;;;7.28;;
31537;SDS011;18147;51.952;6.146;2023-07-13T05:41:41;22.50;;;7.68;;
31537;SDS011;18147;51.952;6.146;2023-07-13T05:44:07;21.90;;;8.13;;
31537;SDS011;18147;51.952;6.146;2023-07-13T05:46:32;22.48;;;8.65;;
31537;SDS011;18147;51.952;6.146;2023-07-13T05:48:58;23.83;;;9.40;;
31537;SDS011;18147;51.952;6.146;2023-07-13T05:51:24;24.70;;;8.27;;
31537;SDS011;18147;51.952;6.146;2023-07-13T05:53:50;22.38;;;9.55;;
31537;SDS011;18147;51.952;6.146;2023-07-13T05:56:16;25.08;;;9.45;;
31537;SDS011;18147;51.952;6.146;2023-07-13T05:58:41;31.50;;;12.32;;
31537;SDS011;18147;51.952;6.146;2023-07-13T06:01:09;33.13;;;11.27;;
31537;SDS011;18147;51.952;6.146;2023-07-13T06:03:37;39.50;;;13.23;;
31537;SDS011;18147;51.952;6.146;2023-07-13T06:06:06;35.40;;;12.70;;
31537;SDS011;18147;51.952;6.146;2023-07-13T06:08:33;33.17;;;13.05;;
31537;SDS011;18147;51.952;6.146;2023-07-13T06:11:03;30.55;;;12.60;;
31537;SDS011;18147;51.952;6.146;2023-07-13T06:13:37;36.78;;;13.15;;
31537;SDS011;18147;51.952;6.146;2023-07-13T06:16:03;29.65;;;12.70;;
31537;SDS011;18147;51.952;6.146;2023-07-13T06:18:30;34.03;;;12.75;;
31537;SDS011;18147;51.952;6.146;2023-07-13T06:20:56;31.45;;;12.77;;
31537;SDS011;18147;51.952;6.146;2023-07-13T06:23:22;26.70;;;12.25;;
31537;SDS011;18147;51.952;6.146;2023-07-13T06:25:48;35.75;;;13.70;;
31537;SDS011;18147;51.952;6.146;2023-07-13T06:28:14;37.30;;;13.68;;
31537;SDS011;18147;51.952;6.146;2023-07-13T06:30:40;33.88;;;13.35;;
31537;SDS011;18147;51.952;6.146;2023-07-13T06:33:05;31.55;;;12.73;;
31537;SDS011;18147;51.952;6.146;2023-07-13T06:35:32;31.52;;;12.57;;
31537;SDS011;18147;51.952;6.146;2023-07-13T06:37:57;32.15;;;12.73;;
31537;SDS011;18147;51.952;6.146;2023-07-13T06:40:23;32.63;;;13.20;;
31537;SDS011;18147;51.952;6.146;2023-07-13T06:42:48;29.48;;;12.77;;
31537;SDS011;18147;51.952;6.146;2023-07-13T06:45:14;27.58;;;12.95;;
31537;SDS011;18147;51.952;6.146;2023-07-13T06:47:40;31.08;;;12.73;;
31537;SDS011;18147;51.952;6.146;2023-07-13T06:50:07;27.50;;;13.07;;
31537;SDS011;18147;51.952;6.146;2023-07-13T06:52:33;27.17;;;12.70;;
31537;SDS011;18147;51.952;6.146;2023-07-13T06:54:58;28.23;;;13.07;;
31537;SDS011;18147;51.952;6.146;2023-07-13T06:57:24;30.23;;;13.35;;
31537;SDS011;18147;51.952;6.146;2023-07-13T06:59:49;34.45;;;14.57;;
31537;SDS011;18147;51.952;6.146;2023-07-13T07:02:15;35.17;;;15.10;;
31537;SDS011;18147;51.952;6.146;2023-07-13T07:04:41;34.63;;;14.68;;
31537;SDS011;18147;51.952;6.146;2023-07-13T07:07:06;42.00;;;14.95;;
31537;SDS011;18147;51.952;6.146;2023-07-13T07:09:32;33.70;;;15.18;;
31537;SDS011;18147;51.952;6.146;2023-07-13T07:11:57;31.60;;;14.40;;
31537;SDS011;18147;51.952;6.146;2023-07-13T07:14:23;32.47;;;13.43;;
31537;SDS011;18147;51.952;6.146;2023-07-13T07:16:49;34.30;;;15.68;;
31537;SDS011;18147;51.952;6.146;2023-07-13T07:19:15;32.25;;;15.55;;
31537;SDS011;18147;51.952;6.146;2023-07-13T07:21:41;34.97;;;14.43;;
31537;SDS011;18147;51.952;6.146;2023-07-13T07:24:07;31.08;;;14.93;;
31537;SDS011;18147;51.952;6.146;2023-07-13T07:26:33;29.75;;;13.80;;
31537;SDS011;18147;51.952;6.146;2023-07-13T07:28:59;34.60;;;14.95;;
31537;SDS011;18147;51.952;6.146;2023-07-13T07:31:24;30.50;;;15.65;;
31537;SDS011;18147;51.952;6.146;2023-07-13T07:33:50;35.85;;;16.02;;
31537;SDS011;18147;51.952;6.146;2023-07-13T07:36:16;31.80;;;16.38;;
31537;SDS011;18147;51.952;6.146;2023-07-13T07:38:42;37.88;;;16.45;;
31537;SDS011;18147;51.952;6.146;2023-07-13T07:41:08;33.08;;;16.40;;
31537;SDS011;18147;51.952;6.146;2023-07-13T07:43:34;39.20;;;16.35;;
31537;SDS011;18147;51.952;6.146;2023-07-13T07:46:00;33.03;;;16.05;;
31537;SDS011;18147;51.952;6.146;2023-07-13T07:48:26;35.67;;;18.20;;
31537;SDS011;18147;51.952;6.146;2023-07-13T07:50:52;40.15;;;17.02;;
31537;SDS011;18147;51.952;6.146;2023-07-13T07:53:17;30.38;;;16.35;;
31537;SDS011;18147;51.952;6.146;2023-07-13T07:55:43;41.22;;;16.48;;
31537;SDS011;18147;51.952;6.146;2023-07-13T07:58:10;33.80;;;15.57;;
31537;SDS011;18147;51.952;6.146;2023-07-13T08:00:35;35.20;;;15.68;;
31537;SDS011;18147;51.952;6.146;2023-07-13T08:03:01;34.17;;;14.73;;
31537;SDS011;18147;51.952;6.146;2023-07-13T08:05:27;46.22;;;19.90;;
31537;SDS011;18147;51.952;6.146;2023-07-13T08:07:54;33.58;;;16.05;;
31537;SDS011;18147;51.952;6.146;2023-07-13T08:10:19;34.55;;;16.35;;
31537;SDS011;18147;51.952;6.146;2023-07-13T08:12:46;32.83;;;15.85;;
31537;SDS011;18147;51.952;6.146;2023-07-13T08:15:13;34.80;;;15.55;;
31537;SDS011;18147;51.952;6.146;2023-07-13T08:17:40;31.05;;;14.80;;
31537;SDS011;18147;51.952;6.146;2023-07-13T08:20:06;34.00;;;14.15;;
31537;SDS011;18147;51.952;6.146;2023-07-13T08:22:32;33.17;;;15.02;;
31537;SDS011;18147;51.952;6.146;2023-07-13T08:24:58;33.17;;;14.98;;
31537;SDS011;18147;51.952;6.146;2023-07-13T08:27:25;31.92;;;15.40;;
31537;SDS011;18147;51.952;6.146;2023-07-13T08:29:52;37.70;;;15.43;;
31537;SDS011;18147;51.952;6.146;2023-07-13T08:32:18;32.95;;;15.18;;
31537;SDS011;18147;51.952;6.146;2023-07-13T08:34:46;33.75;;;14.63;;
31537;SDS011;18147;51.952;6.146;2023-07-13T08:37:11;27.52;;;14.25;;
31537;SDS011;18147;51.952;6.146;2023-07-13T08:39:37;31.70;;;14.75;;
31537;SDS011;18147;51.952;6.146;2023-07-13T08:42:46;25.48;;;13.20;;
31537;SDS011;18147;51.952;6.146;2023-07-13T08:47:46;24.77;;;13.23;;
31537;SDS011;18147;51.952;6.146;2023-07-13T08:50:19;28.52;;;13.15;;
31537;SDS011;18147;51.952;6.146;2023-07-13T08:52:49;25.77;;;13.32;;
31537;SDS011;18147;51.952;6.146;2023-07-13T08:55:18;21.67;;;12.18;;
31537;SDS011;18147;51.952;6.146;2023-07-13T08:57:50;19.63;;;10.63;;
31537;SDS011;18147;51.952;6.146;2023-07-13T09:00:39;29.50;;;12.60;;
31537;SDS011;18147;51.952;6.146;2023-07-13T09:03:21;21.85;;;12.23;;
31537;SDS011;18147;51.952;6.146;2023-07-13T09:05:54;22.65;;;11.38;;
31537;SDS011;18147;51.952;6.146;2023-07-13T09:11:00;27.55;;;13.15;;
31537;SDS011;18147;51.952;6.146;2023-07-13T09:13:35;25.67;;;12.27;;
31537;SDS011;18147;51.952;6.146;2023-07-13T09:16:08;22.85;;;11.57;;
31537;SDS011;18147;51.952;6.146;2023-07-13T09:18:44;19.52;;;11.10;;
31537;SDS011;18147;51.952;6.146;2023-07-13T09:21:15;21.73;;;10.90;;
31537;SDS011;18147;51.952;6.146;2023-07-13T09:23:41;21.10;;;10.93;;
31537;SDS011;18147;51.952;6.146;2023-07-13T09:26:11;20.65;;;10.82;;
31537;SDS011;18147;51.952;6.146;2023-07-13T09:28:42;25.10;;;10.68;;
31537;SDS011;18147;51.952;6.146;2023-07-13T09:31:14;18.63;;;8.68;;
31537;SDS011;18147;51.952;6.146;2023-07-13T09:33:42;21.10;;;10.32;;
31537;SDS011;18147;51.952;6.146;2023-07-13T09:36:25;18.27;;;9.90;;
31537;SDS011;18147;51.952;6.146;2023-07-13T09:39:02;21.58;;;9.38;;
31537;SDS011;18147;51.952;6.146;2023-07-13T09:41:45;17.35;;;9.50;;
31537;SDS011;18147;51.952;6.146;2023-07-13T09:44:18;18.63;;;8.85;;
31537;SDS011;18147;51.952;6.146;2023-07-13T09:46:56;18.02;;;9.23;;
31537;SDS011;18147;51.952;6.146;2023-07-13T09:49:25;17.92;;;8.77;;
31537;SDS011;18147;51.952;6.146;2023-07-13T09:52:02;17.30;;;9.88;;
31537;SDS011;18147;51.952;6.146;2023-07-13T09:54:32;14.63;;;8.82;;
31537;SDS011;18147;51.952;6.146;2023-07-13T09:56:59;18.27;;;9.75;;
31537;SDS011;18147;51.952;6.146;2023-07-13T09:59:30;17.50;;;8.32;;
31537;SDS011;18147;51.952;6.146;2023-07-13T10:01:58;15.77;;;8.55;;
31537;SDS011;18147;51.952;6.146;2023-07-13T10:04:33;26.92;;;10.93;;
31537;SDS011;18147;51.952;6.146;2023-07-13T10:07:09;30.55;;;15.27;;
31537;SDS011;18147;51.952;6.146;2023-07-13T10:09:38;25.13;;;15.68;;
31537;SDS011;18147;51.952;6.146;2023-07-13T10:12:04;24.60;;;16.30;;
31537;SDS011;18147;51.952;6.146;2023-07-13T10:14:42;22.83;;;13.20;;
31537;SDS011;18147;51.952;6.146;2023-07-13T10:17:10;24.73;;;14.60;;
31537;SDS011;18147;51.952;6.146;2023-07-13T10:19:39;24.00;;;14.70;;
31537;SDS011;18147;51.952;6.146;2023-07-13T10:25:00;16.13;;;10.02;;
31537;SDS011;18147;51.952;6.146;2023-07-13T10:27:31;14.05;;;9.23;;
31537;SDS011;18147;51.952;6.146;2023-07-13T10:32:53;14.85;;;9.43;;
31537;SDS011;18147;51.952;6.146;2023-07-13T10:35:20;17.23;;;11.55;;
31537;SDS011;18147;51.952;6.146;2023-07-13T10:37:52;15.20;;;12.73;;
31537;SDS011;18147;51.952;6.146;2023-07-13T10:40:34;20.02;;;12.25;;
31537;SDS011;18147;51.952;6.146;2023-07-13T10:43:04;20.48;;;14.32;;
31537;SDS011;18147;51.952;6.146;2023-07-13T10:45:52;24.67;;;14.50;;
31537;SDS011;18147;51.952;6.146;2023-07-13T10:48:19;19.25;;;14.13;;
31537;SDS011;18147;51.952;6.146;2023-07-13T10:50:49;26.50;;;16.55;;
31537;SDS011;18147;51.952;6.146;2023-07-13T10:53:19;28.05;;;16.02;;
31537;SDS011;18147;51.952;6.146;2023-07-13T10:55:55;22.33;;;14.23;;
31537;SDS011;18147;51.952;6.146;2023-07-13T10:58:35;20.13;;;14.40;;
31537;SDS011;18147;51.952;6.146;2023-07-13T11:03:31;17.10;;;10.65;;
31537;SDS011;18147;51.952;6.146;2023-07-13T11:08:35;16.63;;;11.30;;
31537;SDS011;18147;51.952;6.146;2023-07-13T11:18:49;17.90;;;11.98;;
31537;SDS011;18147;51.952;6.146;2023-07-13T11:21:17;19.52;;;12.93;;
31537;SDS011;18147;51.952;6.146;2023-07-13T11:23:54;23.27;;;13.70;;
31537;SDS011;18147;51.952;6.146;2023-07-13T11:26:40;18.70;;;12.88;;
31537;SDS011;18147;51.952;6.146;2023-07-13T11:31:51;20.70;;;12.38;;
31537;SDS011;18147;51.952;6.146;2023-07-13T11:34:30;19.88;;;12.02;;
31537;SDS011;18147;51.952;6.146;2023-07-13T11:37:00;22.23;;;11.57;;
31537;SDS011;18147;51.952;6.146;2023-07-13T11:39:29;17.33;;;11.57;;
31537;SDS011;18147;51.952;6.146;2023-07-13T11:42:00;19.60;;;11.38;;
31537;SDS011;18147;51.952;6.146;2023-07-13T11:44:28;19.23;;;12.55;;
31537;SDS011;18147;51.952;6.146;2023-07-13T11:46:56;19.17;;;11.30;;
31537;SDS011;18147;51.952;6.146;2023-07-13T11:49:29;18.77;;;11.80;;
31537;SDS011;18147;51.952;6.146;2023-07-13T11:51:56;19.35;;;12.85;;
31537;SDS011;18147;51.952;6.146;2023-07-13T11:54:24;19.27;;;9.75;;
31537;SDS011;18147;51.952;6.146;2023-07-13T11:56:51;15.93;;;9.77;;
31537;SDS011;18147;51.952;6.146;2023-07-13T11:59:19;15.35;;;7.00;;
31537;SDS011;18147;51.952;6.146;2023-07-13T12:01:50;8.80;;;5.80;;
31537;SDS011;18147;51.952;6.146;2023-07-13T12:04:27;12.10;;;5.43;;
31537;SDS011;18147;51.952;6.146;2023-07-13T12:09:33;9.20;;;5.63;;
31537;SDS011;18147;51.952;6.146;2023-07-13T12:12:01;14.88;;;5.63;;
31537;SDS011;18147;51.952;6.146;2023-07-13T12:14:28;7.30;;;4.78;;
31537;SDS011;18147;51.952;6.146;2023-07-13T12:16:54;9.65;;;4.55;;
31537;SDS011;18147;51.952;6.146;2023-07-13T12:19:27;12.10;;;4.45;;
31537;SDS011;18147;51.952;6.146;2023-07-13T12:21:55;10.45;;;3.80;;
31537;SDS011;18147;51.952;6.146;2023-07-13T12:24:22;14.20;;;4.22;;
31537;SDS011;18147;51.952;6.146;2023-07-13T12:26:58;9.35;;;4.22;;
31537;SDS011;18147;51.952;6.146;2023-07-13T12:29:26;8.23;;;4.45;;
31537;SDS011;18147;51.952;6.146;2023-07-13T12:31:52;10.45;;;4.28;;
31537;SDS011;18147;51.952;6.146;2023-07-13T12:34:19;13.57;;;5.57;;
31537;SDS011;18147;51.952;6.146;2023-07-13T12:37:08;11.55;;;5.60;;
31537;SDS011;18147;51.952;6.146;2023-07-13T12:39:38;8.20;;;5.50;;
31537;SDS011;18147;51.952;6.146;2023-07-13T12:44:43;9.63;;;5.60;;
31537;SDS011;18147;51.952;6.146;2023-07-13T12:47:11;10.00;;;5.32;;
31537;SDS011;18147;51.952;6.146;2023-07-13T12:49:43;9.30;;;5.22;;
31537;SDS011;18147;51.952;6.146;2023-07-13T12:52:16;10.50;;;5.50;;
31537;SDS011;18147;51.952;6.146;2023-07-13T12:54:56;13.00;;;4.95;;
31537;SDS011;18147;51.952;6.146;2023-07-13T12:57:24;8.57;;;4.70;;
31537;SDS011;18147;51.952;6.146;2023-07-13T12:59:52;9.80;;;4.00;;
31537;SDS011;18147;51.952;6.146;2023-07-13T13:04:50;9.45;;;4.22;;
31537;SDS011;18147;51.952;6.146;2023-07-13T13:07:16;10.20;;;4.57;;
31537;SDS011;18147;51.952;6.146;2023-07-13T13:09:45;10.05;;;5.05;;
31537;SDS011;18147;51.952;6.146;2023-07-13T13:12:12;10.80;;;4.97;;
31537;SDS011;18147;51.952;6.146;2023-07-13T13:14:38;9.38;;;4.18;;
31537;SDS011;18147;51.952;6.146;2023-07-13T13:17:07;8.90;;;4.85;;
31537;SDS011;18147;51.952;6.146;2023-07-13T13:19:44;10.70;;;4.47;;
31537;SDS011;18147;51.952;6.146;2023-07-13T13:22:10;8.68;;;4.60;;
31537;SDS011;18147;51.952;6.146;2023-07-13T13:24:36;8.90;;;4.45;;
31537;SDS011;18147;51.952;6.146;2023-07-13T13:27:01;6.05;;;3.40;;
31537;SDS011;18147;51.952;6.146;2023-07-13T13:29:27;9.18;;;4.13;;
31537;SDS011;18147;51.952;6.146;2023-07-13T13:31:53;7.75;;;3.78;;
31537;SDS011;18147;51.952;6.146;2023-07-13T13:34:22;7.35;;;4.45;;
31537;SDS011;18147;51.952;6.146;2023-07-13T13:36:48;8.13;;;3.75;;
31537;SDS011;18147;51.952;6.146;2023-07-13T13:39:18;8.60;;;4.30;;
31537;SDS011;18147;51.952;6.146;2023-07-13T13:41:46;5.83;;;3.90;;
31537;SDS011;18147;51.952;6.146;2023-07-13T13:44:14;8.27;;;4.20;;
31537;SDS011;18147;51.952;6.146;2023-07-13T13:46:41;7.30;;;3.90;;
31537;SDS011;18147;51.952;6.146;2023-07-13T13:49:30;6.53;;;4.25;;
31537;SDS011;18147;51.952;6.146;2023-07-13T13:51:55;7.32;;;3.70;;
31537;SDS011;18147;51.952;6.146;2023-07-13T13:54:22;8.32;;;3.65;;
31537;SDS011;18147;51.952;6.146;2023-07-13T13:56:50;10.10;;;4.35;;
31537;SDS011;18147;51.952;6.146;2023-07-13T13:59:17;5.43;;;3.85;;
31537;SDS011;18147;51.952;6.146;2023-07-13T14:01:44;7.55;;;3.80;;
31537;SDS011;18147;51.952;6.146;2023-07-13T14:04:20;7.13;;;3.75;;
31537;SDS011;18147;51.952;6.146;2023-07-13T14:06:47;6.20;;;3.78;;
31537;SDS011;18147;51.952;6.146;2023-07-13T14:09:15;4.63;;;2.78;;
31537;SDS011;18147;51.952;6.146;2023-07-13T14:11:43;6.78;;;3.85;;
31537;SDS011;18147;51.952;6.146;2023-07-13T14:14:43;12.15;;;4.40;;
31537;SDS011;18147;51.952;6.146;2023-07-13T14:17:03;8.95;;;4.10;;
31537;SDS011;18147;51.952;6.146;2023-07-13T14:19:29;11.68;;;4.45;;
31537;SDS011;18147;51.952;6.146;2023-07-13T14:21:55;8.95;;;3.80;;
31537;SDS011;18147;51.952;6.146;2023-07-13T14:24:20;9.35;;;3.45;;
31537;SDS011;18147;51.952;6.146;2023-07-13T14:26:46;5.55;;;3.17;;
31537;SDS011;18147;51.952;6.146;2023-07-13T14:29:14;8.95;;;3.50;;
31537;SDS011;18147;51.952;6.146;2023-07-13T14:31:42;5.93;;;2.75;;
31537;SDS011;18147;51.952;6.146;2023-07-13T14:34:09;6.53;;;3.22;;
31537;SDS011;18147;51.952;6.146;2023-07-13T14:36:43;6.65;;;3.13;;
31537;SDS011;18147;51.952;6.146;2023-07-13T14:39:13;4.80;;;2.78;;
31537;SDS011;18147;51.952;6.146;2023-07-13T14:41:41;6.13;;;2.85;;
31537;SDS011;18147;51.952;6.146;2023-07-13T14:44:10;6.47;;;3.22;;
31537;SDS011;18147;51.952;6.146;2023-07-13T14:46:44;8.27;;;3.42;;
31537;SDS011;18147;51.952;6.146;2023-07-13T14:49:13;5.43;;;3.45;;
31537;SDS011;18147;51.952;6.146;2023-07-13T14:51:44;7.40;;;3.25;;
31537;SDS011;18147;51.952;6.146;2023-07-13T14:54:10;7.22;;;2.83;;
31537;SDS011;18147;51.952;6.146;2023-07-13T14:56:37;5.60;;;3.30;;
31537;SDS011;18147;51.952;6.146;2023-07-13T14:59:02;6.93;;;3.25;;
31537;SDS011;18147;51.952;6.146;2023-07-13T15:01:30;8.77;;;3.40;;
31537;SDS011;18147;51.952;6.146;2023-07-13T15:03:56;6.75;;;3.17;;
31537;SDS011;18147;51.952;6.146;2023-07-13T15:06:23;6.07;;;3.38;;
31537;SDS011;18147;51.952;6.146;2023-07-13T15:08:49;7.80;;;3.58;;
31537;SDS011;18147;51.952;6.146;2023-07-13T15:11:15;8.48;;;3.25;;
31537;SDS011;18147;51.952;6.146;2023-07-13T15:13:41;6.22;;;3.30;;